sensor_id;sensor_type;location;lat;lon;timestamp;temperature;humidity
52941;DHT22;62001;53.366;6.636;2023-07-30T00:02:21;15.30;99.90
52941;DHT22;62001;53.366;6.636;2023-07-30T00:04:47;15.30;99.90
52941;DHT22;62001;53.366;6.636;2023-07-30T00:07:14;15.40;99.90
52941;DHT22;62001;53.366;6.636;2023-07-30T00:09:40;15.40;99.90
52941;DHT22;62001;53.366;6.636;2023-07-30T00:12:07;15.30;99.90
52941;DHT22;62001;53.366;6.636;2023-07-30T00:14:34;15.40;99.90
52941;DHT22;62001;53.366;6.636;2023-07-30T00:17:00;15.40;99.90
52941;DHT22;62001;53.366;6.636;2023-07-30T00:19:26;15.40;99.90
52941;DHT22;62001;53.366;6.636;2023-07-30T00:21:51;15.40;99.90
52941;DHT22;62001;53.366;6.636;2023-07-30T00:24:17;15.40;99.90
52941;DHT22;62001;53.366;6.636;2023-07-30T00:26:43;15.40;99.90
52941;DHT22;62001;53.366;6.636;2023-07-30T00:29:09;15.50;99.90
52941;DHT22;62001;53.366;6.636;2023-07-30T00:31:35;15.40;99.90
52941;DHT22;62001;53.366;6.636;2023-07-30T00:34:01;15.40;99.90
52941;DHT22;62001;53.366;6.636;2023-07-30T00:36:27;15.40;99.90
52941;DHT22;62001;53.366;6.636;2023-07-30T00:38:53;15.40;99.90
52941;DHT22;62001;53.366;6.636;2023-07-30T00:41:18;15.40;99.90
52941;DHT22;62001;53.366;6.636;2023-07-30T00:43:44;15.30;99.90
52941;DHT22;62001;53.366;6.636;2023-07-30T00:46:12;15.30;99.90
52941;DHT22;62001;53.366;6.636;2023-07-30T00:48:38;15.30;99.90
52941;DHT22;62001;53.366;6.636;2023-07-30T00:51:05;15.30;99.90
52941;DHT22;62001;53.366;6.636;2023-07-30T00:53:32;15.30;99.90
52941;DHT22;62001;53.366;6.636;2023-07-30T00:55:58;15.30;99.90
52941;DHT22;62001;53.366;6.636;2023-07-30T00:58:24;15.30;99.90
52941;DHT22;62001;53.366;6.636;2023-07-30T01:00:53;15.30;99.90
52941;DHT22;62001;53.366;6.636;2023-07-30T01:03:20;15.30;99.90
52941;DHT22;62001;53.366;6.636;2023-07-30T01:05:46;15.30;99.90
52941;DHT22;62001;53.366;6.636;2023-07-30T01:08:12;15.30;99.90
52941;DHT22;62001;53.366;6.636;2023-07-30T01:10:38;15.30;99.90
52941;DHT22;62001;53.366;6.636;2023-07-30T01:13:07;15.30;99.90
52941;DHT22;62001;53.366;6.636;2023-07-30T01:15:34;15.30;99.90
52941;DHT22;62001;53.366;6.636;2023-07-30T01:18:00;15.30;99.90
52941;DHT22;62001;53.366;6.636;2023-07-30T01:20:30;15.30;99.90
52941;DHT22;62001;53.366;6.636;2023-07-30T01:23:00;15.30;99.90
52941;DHT22;62001;53.366;6.636;2023-07-30T01:25:29;15.30;99.90
52941;DHT22;62001;53.366;6.636;2023-07-30T01:27:59;15.40;99.90
52941;DHT22;62001;53.366;6.636;2023-07-30T01:30:46;15.40;99.90
52941;DHT22;62001;53.366;6.636;2023-07-30T01:33:14;15.40;99.90
52941;DHT22;62001;53.366;6.636;2023-07-30T01:35:43;15.40;99.90
52941;DHT22;62001;53.366;6.636;2023-07-30T01:38:11;15.40;99.90
52941;DHT22;62001;53.366;6.636;2023-07-30T01:40:37;15.40;99.90
52941;DHT22;62001;53.366;6.636;2023-07-30T01:43:03;15.50;99.90
52941;DHT22;62001;53.366;6.636;2023-07-30T01:45:29;15.50;99.90
52941;DHT22;62001;53.366;6.636;2023-07-30T01:47:55;15.40;99.90
52941;DHT22;62001;53.366;6.636;2023-07-30T01:50:21;15.50;99.90
52941;DHT22;62001;53.366;6.636;2023-07-30T01:52:47;15.50;99.90
52941;DHT22;62001;53.366;6.636;2023-07-30T01:55:13;15.50;99.90
52941;DHT22;62001;53.366;6.636;2023-07-30T01:57:39;15.50;99.90
52941;DHT22;62001;53.366;6.636;2023-07-30T02:00:05;15.50;99.90
52941;DHT22;62001;53.366;6.636;2023-07-30T02:02:31;15.50;99.90
52941;DHT22;62001;53.366;6.636;2023-07-30T02:04:57;15.50;99.90
52941;DHT22;62001;53.366;6.636;2023-07-30T02:07:23;15.50;99.90
52941;DHT22;62001;53.366;6.636;2023-07-30T02:09:48;15.50;99.90
52941;DHT22;62001;53.366;6.636;2023-07-30T02:12:14;15.60;99.90
52941;DHT22;62001;53.366;6.636;2023-07-30T02:14:40;15.60;99.90
52941;DHT22;62001;53.366;6.636;2023-07-30T02:17:06;15.60;99.90
52941;DHT22;62001;53.366;6.636;2023-07-30T02:19:32;15.70;99.90
52941;DHT22;62001;53.366;6.636;2023-07-30T02:21:58;15.70;99.90
52941;DHT22;62001;53.366;6.636;2023-07-30T02:24:23;15.70;99.90
52941;DHT22;62001;53.366;6.636;2023-07-30T02:26:49;15.80;99.90
52941;DHT22;62001;53.366;6.636;2023-07-30T02:29:15;15.80;99.90
52941;DHT22;62001;53.366;6.636;2023-07-30T02:31:41;15.80;99.90
52941;DHT22;62001;53.366;6.636;2023-07-30T02:34:07;15.90;99.90
52941;DHT22;62001;53.366;6.636;2023-07-30T02:36:33;15.90;99.90
52941;DHT22;62001;53.366;6.636;2023-07-30T02:38:59;15.90;99.90
52941;DHT22;62001;53.366;6.636;2023-07-30T02:41:25;15.90;99.90
52941;DHT22;62001;53.366;6.636;2023-07-30T02:43:51;15.90;99.90
52941;DHT22;62001;53.366;6.636;2023-07-30T02:46:17;16.00;99.90
52941;DHT22;62001;53.366;6.636;2023-07-30T02:48:43;16.00;99.90
52941;DHT22;62001;53.366;6.636;2023-07-30T02:51:08;16.00;99.90
52941;DHT22;62001;53.366;6.636;2023-07-30T02:53:34;16.00;99.90
52941;DHT22;62001;53.366;6.636;2023-07-30T02:56:00;16.00;99.90
52941;DHT22;62001;53.366;6.636;2023-07-30T02:58:26;16.00;99.90
52941;DHT22;62001;53.366;6.636;2023-07-30T03:00:52;16.00;99.90
52941;DHT22;62001;53.366;6.636;2023-07-30T03:03:18;16.00;99.90
52941;DHT22;62001;53.366;6.636;2023-07-30T03:05:44;16.00;99.90
52941;DHT22;62001;53.366;6.636;2023-07-30T03:08:09;16.00;99.90
52941;DHT22;62001;53.366;6.636;2023-07-30T03:10:38;16.00;99.90
52941;DHT22;62001;53.366;6.636;2023-07-30T03:13:04;16.00;99.90
52941;DHT22;62001;53.366;6.636;2023-07-30T03:15:30;16.00;99.90
52941;DHT22;62001;53.366;6.636;2023-07-30T03:17:56;16.00;99.90
52941;DHT22;62001;53.366;6.636;2023-07-30T03:20:22;16.00;99.90
52941;DHT22;62001;53.366;6.636;2023-07-30T03:22:48;16.00;99.90
52941;DHT22;62001;53.366;6.636;2023-07-30T03:25:15;16.00;99.90
52941;DHT22;62001;53.366;6.636;2023-07-30T03:27:41;15.90;99.90
52941;DHT22;62001;53.366;6.636;2023-07-30T03:30:07;15.90;99.90
52941;DHT22;62001;53.366;6.636;2023-07-30T03:32:34;15.90;99.90
52941;DHT22;62001;53.366;6.636;2023-07-30T03:35:00;15.90;99.90
52941;DHT22;62001;53.366;6.636;2023-07-30T03:37:26;15.90;99.90
52941;DHT22;62001;53.366;6.636;2023-07-30T03:39:52;15.80;99.90
52941;DHT22;62001;53.366;6.636;2023-07-30T03:42:17;15.90;99.90
52941;DHT22;62001;53.366;6.636;2023-07-30T03:44:43;15.80;99.90
52941;DHT22;62001;53.366;6.636;2023-07-30T03:47:09;15.80;99.90
52941;DHT22;62001;53.366;6.636;2023-07-30T03:49:35;15.80;99.90
52941;DHT22;62001;53.366;6.636;2023-07-30T03:52:01;15.80;99.90
52941;DHT22;62001;53.366;6.636;2023-07-30T03:54:27;15.80;99.90
52941;DHT22;62001;53.366;6.636;2023-07-30T03:56:52;15.80;99.90
52941;DHT22;62001;53.366;6.636;2023-07-30T03:59:18;15.80;99.90
52941;DHT22;62001;53.366;6.636;2023-07-30T04:01:44;15.70;99.90
52941;DHT22;62001;53.366;6.636;2023-07-30T04:04:10;15.70;99.90
52941;DHT22;62001;53.366;6.636;2023-07-30T04:06:36;15.70;99.90
52941;DHT22;62001;53.366;6.636;2023-07-30T04:09:02;15.70;99.90
52941;DHT22;62001;53.366;6.636;2023-07-30T04:11:28;15.60;99.90
52941;DHT22;62001;53.366;6.636;2023-07-30T04:13:54;15.60;99.90
52941;DHT22;62001;53.366;6.636;2023-07-30T04:16:20;15.60;99.90
52941;DHT22;62001;53.366;6.636;2023-07-30T04:18:46;15.60;99.90
52941;DHT22;62001;53.366;6.636;2023-07-30T04:21:12;15.70;99.90
52941;DHT22;62001;53.366;6.636;2023-07-30T04:23:39;15.70;99.90
52941;DHT22;62001;53.366;6.636;2023-07-30T04:26:05;15.70;99.90
52941;DHT22;62001;53.366;6.636;2023-07-30T04:28:31;15.70;99.90
52941;DHT22;62001;53.366;6.636;2023-07-30T04:30:56;15.70;99.90
52941;DHT22;62001;53.366;6.636;2023-07-30T04:33:22;15.80;99.90
52941;DHT22;62001;53.366;6.636;2023-07-30T04:35:48;15.80;99.90
52941;DHT22;62001;53.366;6.636;2023-07-30T04:38:14;15.80;99.90
52941;DHT22;62001;53.366;6.636;2023-07-30T04:40:40;15.90;99.90
52941;DHT22;62001;53.366;6.636;2023-07-30T04:43:05;15.90;99.90
52941;DHT22;62001;53.366;6.636;2023-07-30T04:45:31;16.00;99.90
52941;DHT22;62001;53.366;6.636;2023-07-30T04:47:57;16.00;99.90
52941;DHT22;62001;53.366;6.636;2023-07-30T04:50:23;16.10;99.90
52941;DHT22;62001;53.366;6.636;2023-07-30T04:52:49;16.20;99.90
52941;DHT22;62001;53.366;6.636;2023-07-30T04:55:15;16.30;99.90
52941;DHT22;62001;53.366;6.636;2023-07-30T04:57:41;16.40;99.90
52941;DHT22;62001;53.366;6.636;2023-07-30T05:00:07;16.50;99.90
52941;DHT22;62001;53.366;6.636;2023-07-30T05:02:33;16.60;99.90
52941;DHT22;62001;53.366;6.636;2023-07-30T05:04:59;16.70;99.90
52941;DHT22;62001;53.366;6.636;2023-07-30T05:07:25;16.80;99.90
52941;DHT22;62001;53.366;6.636;2023-07-30T05:09:50;16.80;99.90
52941;DHT22;62001;53.366;6.636;2023-07-30T05:12:16;16.90;99.90
52941;DHT22;62001;53.366;6.636;2023-07-30T05:14:42;16.80;99.90
52941;DHT22;62001;53.366;6.636;2023-07-30T05:17:08;16.80;99.90
52941;DHT22;62001;53.366;6.636;2023-07-30T05:19:34;16.80;99.90
52941;DHT22;62001;53.366;6.636;2023-07-30T05:22:00;16.80;99.90
52941;DHT22;62001;53.366;6.636;2023-07-30T05:24:27;16.80;99.90
52941;DHT22;62001;53.366;6.636;2023-07-30T05:26:53;16.80;99.90
52941;DHT22;62001;53.366;6.636;2023-07-30T05:29:19;16.90;99.90
52941;DHT22;62001;53.366;6.636;2023-07-30T05:31:45;16.90;99.90
52941;DHT22;62001;53.366;6.636;2023-07-30T05:34:10;16.90;99.90
52941;DHT22;62001;53.366;6.636;2023-07-30T05:36:36;17.00;99.90
52941;DHT22;62001;53.366;6.636;2023-07-30T05:39:02;17.00;99.90
52941;DHT22;62001;53.366;6.636;2023-07-30T05:41:28;17.00;99.90
52941;DHT22;62001;53.366;6.636;2023-07-30T05:43:54;17.00;99.90
52941;DHT22;62001;53.366;6.636;2023-07-30T05:46:20;17.10;99.90
52941;DHT22;62001;53.366;6.636;2023-07-30T05:48:45;17.20;99.90
52941;DHT22;62001;53.366;6.636;2023-07-30T05:51:11;17.30;99.90
52941;DHT22;62001;53.366;6.636;2023-07-30T05:53:37;17.30;99.90
52941;DHT22;62001;53.366;6.636;2023-07-30T05:56:03;17.40;99.90
52941;DHT22;62001;53.366;6.636;2023-07-30T05:58:29;17.50;99.90
52941;DHT22;62001;53.366;6.636;2023-07-30T06:00:55;17.50;99.90
52941;DHT22;62001;53.366;6.636;2023-07-30T06:03:21;17.50;99.90
52941;DHT22;62001;53.366;6.636;2023-07-30T06:05:47;17.60;99.90
52941;DHT22;62001;53.366;6.636;2023-07-30T06:08:13;17.60;99.90
52941;DHT22;62001;53.366;6.636;2023-07-30T06:10:39;17.70;99.90
52941;DHT22;62001;53.366;6.636;2023-07-30T06:13:06;17.80;99.90
52941;DHT22;62001;53.366;6.636;2023-07-30T06:15:33;17.80;99.90
52941;DHT22;62001;53.366;6.636;2023-07-30T06:18:01;17.90;99.90
52941;DHT22;62001;53.366;6.636;2023-07-30T06:20:27;17.90;99.90
52941;DHT22;62001;53.366;6.636;2023-07-30T06:22:53;18.00;99.90
52941;DHT22;62001;53.366;6.636;2023-07-30T06:25:18;18.00;99.90
52941;DHT22;62001;53.366;6.636;2023-07-30T06:27:44;18.00;99.90
52941;DHT22;62001;53.366;6.636;2023-07-30T06:30:11;18.00;99.90
52941;DHT22;62001;53.366;6.636;2023-07-30T06:32:37;18.00;99.90
52941;DHT22;62001;53.366;6.636;2023-07-30T06:35:03;17.90;99.90
52941;DHT22;62001;53.366;6.636;2023-07-30T06:37:29;17.90;99.90
52941;DHT22;62001;53.366;6.636;2023-07-30T06:39:54;17.90;99.90
52941;DHT22;62001;53.366;6.636;2023-07-30T06:42:20;17.90;99.90
52941;DHT22;62001;53.366;6.636;2023-07-30T06:44:46;17.90;99.90
52941;DHT22;62001;53.366;6.636;2023-07-30T06:47:12;17.90;99.90
52941;DHT22;62001;53.366;6.636;2023-07-30T06:49:38;17.90;99.90
52941;DHT22;62001;53.366;6.636;2023-07-30T06:52:04;18.00;99.90
52941;DHT22;62001;53.366;6.636;2023-07-30T06:54:30;18.00;99.90
52941;DHT22;62001;53.366;6.636;2023-07-30T06:56:55;18.10;99.90
52941;DHT22;62001;53.366;6.636;2023-07-30T06:59:21;18.20;99.90
52941;DHT22;62001;53.366;6.636;2023-07-30T07:01:47;18.20;99.90
52941;DHT22;62001;53.366;6.636;2023-07-30T07:04:13;18.10;99.90
52941;DHT22;62001;53.366;6.636;2023-07-30T07:06:39;18.10;99.90
52941;DHT22;62001;53.366;6.636;2023-07-30T07:09:05;18.10;99.90
52941;DHT22;62001;53.366;6.636;2023-07-30T07:11:31;18.10;99.90
52941;DHT22;62001;53.366;6.636;2023-07-30T07:13:57;18.20;99.90
52941;DHT22;62001;53.366;6.636;2023-07-30T07:16:22;18.40;99.90
52941;DHT22;62001;53.366;6.636;2023-07-30T07:18:48;18.60;99.90
52941;DHT22;62001;53.366;6.636;2023-07-30T07:21:14;18.90;99.90
52941;DHT22;62001;53.366;6.636;2023-07-30T07:23:40;19.40;99.90
52941;DHT22;62001;53.366;6.636;2023-07-30T07:26:06;20.30;99.90
52941;DHT22;62001;53.366;6.636;2023-07-30T07:28:32;20.90;99.90
52941;DHT22;62001;53.366;6.636;2023-07-30T07:30:58;21.30;99.90
52941;DHT22;62001;53.366;6.636;2023-07-30T07:33:24;21.80;99.90
52941;DHT22;62001;53.366;6.636;2023-07-30T07:35:49;22.00;99.90
52941;DHT22;62001;53.366;6.636;2023-07-30T07:38:15;21.90;99.90
52941;DHT22;62001;53.366;6.636;2023-07-30T07:40:41;21.80;99.90
52941;DHT22;62001;53.366;6.636;2023-07-30T07:43:08;21.70;99.90
52941;DHT22;62001;53.366;6.636;2023-07-30T07:45:34;21.70;99.90
52941;DHT22;62001;53.366;6.636;2023-07-30T07:48:00;21.80;99.90
52941;DHT22;62001;53.366;6.636;2023-07-30T07:50:26;22.00;99.90
52941;DHT22;62001;53.366;6.636;2023-07-30T07:52:52;22.30;99.90
52941;DHT22;62001;53.366;6.636;2023-07-30T07:55:18;22.40;99.90
52941;DHT22;62001;53.366;6.636;2023-07-30T07:57:43;22.30;99.90
52941;DHT22;62001;53.366;6.636;2023-07-30T08:00:10;22.20;99.90
52941;DHT22;62001;53.366;6.636;2023-07-30T08:02:36;22.00;99.90
52941;DHT22;62001;53.366;6.636;2023-07-30T08:05:02;21.90;99.90
52941;DHT22;62001;53.366;6.636;2023-07-30T08:07:28;21.60;99.90
52941;DHT22;62001;53.366;6.636;2023-07-30T08:09:54;21.40;99.90
52941;DHT22;62001;53.366;6.636;2023-07-30T08:12:20;21.20;99.90
52941;DHT22;62001;53.366;6.636;2023-07-30T08:14:46;20.90;99.90
52941;DHT22;62001;53.366;6.636;2023-07-30T08:17:12;20.70;99.90
52941;DHT22;62001;53.366;6.636;2023-07-30T08:19:38;20.60;99.90
52941;DHT22;62001;53.366;6.636;2023-07-30T08:22:04;20.50;99.90
52941;DHT22;62001;53.366;6.636;2023-07-30T08:24:30;20.60;99.90
52941;DHT22;62001;53.366;6.636;2023-07-30T08:26:56;20.70;99.90
52941;DHT22;62001;53.366;6.636;2023-07-30T08:29:22;20.90;99.90
52941;DHT22;62001;53.366;6.636;2023-07-30T08:31:48;21.00;99.90
52941;DHT22;62001;53.366;6.636;2023-07-30T08:34:13;21.00;99.90
52941;DHT22;62001;53.366;6.636;2023-07-30T08:36:39;20.90;99.90
52941;DHT22;62001;53.366;6.636;2023-07-30T08:39:05;20.70;99.90
52941;DHT22;62001;53.366;6.636;2023-07-30T08:41:31;20.70;99.90
52941;DHT22;62001;53.366;6.636;2023-07-30T08:43:57;20.50;99.90
52941;DHT22;62001;53.366;6.636;2023-07-30T08:46:24;20.40;99.90
52941;DHT22;62001;53.366;6.636;2023-07-30T08:48:50;20.40;99.90
52941;DHT22;62001;53.366;6.636;2023-07-30T08:51:16;20.40;99.90
52941;DHT22;62001;53.366;6.636;2023-07-30T08:53:42;20.30;99.90
52941;DHT22;62001;53.366;6.636;2023-07-30T08:56:09;20.30;99.90
52941;DHT22;62001;53.366;6.636;2023-07-30T08:58:38;20.40;99.90
52941;DHT22;62001;53.366;6.636;2023-07-30T09:01:09;20.40;99.90
52941;DHT22;62001;53.366;6.636;2023-07-30T09:03:39;20.40;99.90
52941;DHT22;62001;53.366;6.636;2023-07-30T09:06:05;20.40;99.90
52941;DHT22;62001;53.366;6.636;2023-07-30T09:08:31;20.40;99.90
52941;DHT22;62001;53.366;6.636;2023-07-30T09:11:07;20.40;99.90
52941;DHT22;62001;53.366;6.636;2023-07-30T09:13:40;20.40;99.90
52941;DHT22;62001;53.366;6.636;2023-07-30T09:16:14;20.40;99.90
52941;DHT22;62001;53.366;6.636;2023-07-30T09:18:41;20.30;99.90
52941;DHT22;62001;53.366;6.636;2023-07-30T09:21:07;20.30;99.90
52941;DHT22;62001;53.366;6.636;2023-07-30T09:23:42;20.20;99.90
52941;DHT22;62001;53.366;6.636;2023-07-30T09:26:09;20.20;99.90
52941;DHT22;62001;53.366;6.636;2023-07-30T09:28:35;20.20;99.90
52941;DHT22;62001;53.366;6.636;2023-07-30T09:31:06;20.20;99.90
52941;DHT22;62001;53.366;6.636;2023-07-30T09:33:33;20.10;99.90
52941;DHT22;62001;53.366;6.636;2023-07-30T09:36:02;20.00;99.90
52941;DHT22;62001;53.366;6.636;2023-07-30T09:38:29;19.80;99.90
52941;DHT22;62001;53.366;6.636;2023-07-30T09:41:02;19.70;99.90
52941;DHT22;62001;53.366;6.636;2023-07-30T09:43:28;19.50;99.90
52941;DHT22;62001;53.366;6.636;2023-07-30T09:46:04;19.30;99.90
52941;DHT22;62001;53.366;6.636;2023-07-30T09:48:34;19.20;99.90
52941;DHT22;62001;53.366;6.636;2023-07-30T09:51:01;19.20;99.90
52941;DHT22;62001;53.366;6.636;2023-07-30T09:53:34;19.10;99.90
52941;DHT22;62001;53.366;6.636;2023-07-30T09:56:03;19.20;99.90
52941;DHT22;62001;53.366;6.636;2023-07-30T09:58:30;19.30;99.90
52941;DHT22;62001;53.366;6.636;2023-07-30T10:00:58;19.30;99.90
52941;DHT22;62001;53.366;6.636;2023-07-30T10:03:27;19.30;99.90
52941;DHT22;62001;53.366;6.636;2023-07-30T10:06:04;19.40;99.90
52941;DHT22;62001;53.366;6.636;2023-07-30T10:08:35;19.40;99.90
52941;DHT22;62001;53.366;6.636;2023-07-30T10:11:07;19.40;99.90
52941;DHT22;62001;53.366;6.636;2023-07-30T10:13:35;19.40;99.90
52941;DHT22;62001;53.366;6.636;2023-07-30T10:16:01;19.50;99.90
52941;DHT22;62001;53.366;6.636;2023-07-30T10:18:43;19.50;99.90
52941;DHT22;62001;53.366;6.636;2023-07-30T10:21:10;19.60;99.90
52941;DHT22;62001;53.366;6.636;2023-07-30T10:23:46;19.80;99.90
52941;DHT22;62001;53.366;6.636;2023-07-30T10:26:12;20.10;99.90
52941;DHT22;62001;53.366;6.636;2023-07-30T10:28:38;20.30;99.90
52941;DHT22;62001;53.366;6.636;2023-07-30T10:31:09;20.90;99.90
52941;DHT22;62001;53.366;6.636;2023-07-30T10:33:53;21.40;99.90
52941;DHT22;62001;53.366;6.636;2023-07-30T10:36:31;21.60;99.90
52941;DHT22;62001;53.366;6.636;2023-07-30T10:39:11;21.70;99.90
52941;DHT22;62001;53.366;6.636;2023-07-30T10:41:37;21.60;99.90
52941;DHT22;62001;53.366;6.636;2023-07-30T10:44:03;21.50;99.90
52941;DHT22;62001;53.366;6.636;2023-07-30T10:46:30;21.30;99.90
52941;DHT22;62001;53.366;6.636;2023-07-30T10:48:56;21.10;99.90
52941;DHT22;62001;53.366;6.636;2023-07-30T10:51:22;20.80;99.90
52941;DHT22;62001;53.366;6.636;2023-07-30T10:53:50;20.60;99.90
52941;DHT22;62001;53.366;6.636;2023-07-30T10:56:22;20.60;99.90
52941;DHT22;62001;53.366;6.636;2023-07-30T10:58:51;20.70;99.90
52941;DHT22;62001;53.366;6.636;2023-07-30T11:01:17;20.70;99.90
52941;DHT22;62001;53.366;6.636;2023-07-30T11:03:43;20.50;99.90
52941;DHT22;62001;53.366;6.636;2023-07-30T11:06:09;20.40;99.90
52941;DHT22;62001;53.366;6.636;2023-07-30T11:08:40;20.40;99.90
52941;DHT22;62001;53.366;6.636;2023-07-30T11:11:08;20.70;99.90
52941;DHT22;62001;53.366;6.636;2023-07-30T11:13:39;21.10;99.90
52941;DHT22;62001;53.366;6.636;2023-07-30T11:16:11;21.40;99.90
52941;DHT22;62001;53.366;6.636;2023-07-30T11:18:38;21.40;99.90
52941;DHT22;62001;53.366;6.636;2023-07-30T11:21:05;21.20;99.90
52941;DHT22;62001;53.366;6.636;2023-07-30T11:23:32;21.10;99.90
52941;DHT22;62001;53.366;6.636;2023-07-30T11:25:59;21.00;99.90
52941;DHT22;62001;53.366;6.636;2023-07-30T11:31:18;21.10;99.90
52941;DHT22;62001;53.366;6.636;2023-07-30T11:33:46;21.30;99.90
52941;DHT22;62001;53.366;6.636;2023-07-30T11:36:19;21.40;99.90
52941;DHT22;62001;53.366;6.636;2023-07-30T11:38:47;21.50;99.90
52941;DHT22;62001;53.366;6.636;2023-07-30T11:41:14;21.50;99.90
52941;DHT22;62001;53.366;6.636;2023-07-30T11:43:44;21.50;99.90
52941;DHT22;62001;53.366;6.636;2023-07-30T11:46:17;21.60;99.90
52941;DHT22;62001;53.366;6.636;2023-07-30T11:48:46;21.80;99.90
52941;DHT22;62001;53.366;6.636;2023-07-30T11:51:23;22.00;99.90
52941;DHT22;62001;53.366;6.636;2023-07-30T11:53:58;22.10;99.90
52941;DHT22;62001;53.366;6.636;2023-07-30T11:56:25;22.10;99.90
52941;DHT22;62001;53.366;6.636;2023-07-30T11:58:58;22.00;99.90
52941;DHT22;62001;53.366;6.636;2023-07-30T12:01:26;21.90;99.90
52941;DHT22;62001;53.366;6.636;2023-07-30T12:03:59;22.10;99.90
52941;DHT22;62001;53.366;6.636;2023-07-30T12:06:48;22.30;99.90
52941;DHT22;62001;53.366;6.636;2023-07-30T12:09:18;22.60;99.90
52941;DHT22;62001;53.366;6.636;2023-07-30T12:11:55;22.40;99.90
52941;DHT22;62001;53.366;6.636;2023-07-30T12:14:26;22.20;99.90
52941;DHT22;62001;53.366;6.636;2023-07-30T12:16:56;21.80;99.90
52941;DHT22;62001;53.366;6.636;2023-07-30T12:19:22;21.60;99.90
52941;DHT22;62001;53.366;6.636;2023-07-30T12:21:48;21.30;99.90
52941;DHT22;62001;53.366;6.636;2023-07-30T12:24:14;21.40;99.90
52941;DHT22;62001;53.366;6.636;2023-07-30T12:26:40;21.60;99.90
52941;DHT22;62001;53.366;6.636;2023-07-30T12:29:06;21.70;99.90
52941;DHT22;62001;53.366;6.636;2023-07-30T12:31:32;21.90;99.90
52941;DHT22;62001;53.366;6.636;2023-07-30T12:33:58;22.00;99.90
52941;DHT22;62001;53.366;6.636;2023-07-30T12:36:24;22.00;99.90
52941;DHT22;62001;53.366;6.636;2023-07-30T12:38:51;22.00;99.90
52941;DHT22;62001;53.366;6.636;2023-07-30T12:41:19;21.80;99.90
52941;DHT22;62001;53.366;6.636;2023-07-30T12:43:52;21.60;99.90
52941;DHT22;62001;53.366;6.636;2023-07-30T12:46:19;21.30;99.90
52941;DHT22;62001;53.366;6.636;2023-07-30T12:48:45;21.10;99.90
52941;DHT22;62001;53.366;6.636;2023-07-30T12:51:10;21.00;99.90
52941;DHT22;62001;53.366;6.636;2023-07-30T12:53:37;21.10;99.90
52941;DHT22;62001;53.366;6.636;2023-07-30T12:56:03;21.10;99.90
52941;DHT22;62001;53.366;6.636;2023-07-30T12:58:28;21.10;99.90
52941;DHT22;62001;53.366;6.636;2023-07-30T13:00:54;21.10;99.90
52941;DHT22;62001;53.366;6.636;2023-07-30T13:03:20;21.10;99.90
52941;DHT22;62001;53.366;6.636;2023-07-30T13:05:46;21.10;99.90
52941;DHT22;62001;53.366;6.636;2023-07-30T13:08:12;21.30;99.90
52941;DHT22;62001;53.366;6.636;2023-07-30T13:10:38;21.60;99.90
52941;DHT22;62001;53.366;6.636;2023-07-30T13:13:03;21.90;99.90
52941;DHT22;62001;53.366;6.636;2023-07-30T13:15:29;22.10;99.90
52941;DHT22;62001;53.366;6.636;2023-07-30T13:17:55;22.40;99.90
52941;DHT22;62001;53.366;6.636;2023-07-30T13:20:21;22.50;99.90
52941;DHT22;62001;53.366;6.636;2023-07-30T13:22:47;22.40;99.90
52941;DHT22;62001;53.366;6.636;2023-07-30T13:25:13;22.30;99.90
52941;DHT22;62001;53.366;6.636;2023-07-30T13:27:39;22.10;99.90
52941;DHT22;62001;53.366;6.636;2023-07-30T13:30:05;21.90;99.90
52941;DHT22;62001;53.366;6.636;2023-07-30T13:32:31;21.70;99.90
52941;DHT22;62001;53.366;6.636;2023-07-30T13:34:57;21.60;99.90
52941;DHT22;62001;53.366;6.636;2023-07-30T13:37:23;21.50;99.90
52941;DHT22;62001;53.366;6.636;2023-07-30T13:39:48;21.60;99.90
52941;DHT22;62001;53.366;6.636;2023-07-30T13:42:15;21.80;99.90
52941;DHT22;62001;53.366;6.636;2023-07-30T13:44:40;22.00;99.90
52941;DHT22;62001;53.366;6.636;2023-07-30T13:47:07;22.20;99.90
52941;DHT22;62001;53.366;6.636;2023-07-30T13:49:33;22.20;99.90
52941;DHT22;62001;53.366;6.636;2023-07-30T13:51:59;22.00;99.90
52941;DHT22;62001;53.366;6.636;2023-07-30T13:54:25;21.80;99.90
52941;DHT22;62001;53.366;6.636;2023-07-30T13:56:51;21.60;99.90
52941;DHT22;62001;53.366;6.636;2023-07-30T13:59:17;21.50;99.90
52941;DHT22;62001;53.366;6.636;2023-07-30T14:01:42;21.40;99.90
52941;DHT22;62001;53.366;6.636;2023-07-30T14:04:08;21.50;99.90
52941;DHT22;62001;53.366;6.636;2023-07-30T14:06:34;21.60;99.90
52941;DHT22;62001;53.366;6.636;2023-07-30T14:09:00;21.70;99.90
52941;DHT22;62001;53.366;6.636;2023-07-30T14:11:27;21.60;99.90
52941;DHT22;62001;53.366;6.636;2023-07-30T14:13:53;21.50;99.90
52941;DHT22;62001;53.366;6.636;2023-07-30T14:16:19;21.40;99.90
52941;DHT22;62001;53.366;6.636;2023-07-30T14:18:45;21.40;99.90
52941;DHT22;62001;53.366;6.636;2023-07-30T14:21:11;21.40;99.90
52941;DHT22;62001;53.366;6.636;2023-07-30T14:23:38;21.40;99.90
52941;DHT22;62001;53.366;6.636;2023-07-30T14:26:04;21.50;99.90
52941;DHT22;62001;53.366;6.636;2023-07-30T14:28:30;21.50;99.90
52941;DHT22;62001;53.366;6.636;2023-07-30T14:30:56;21.40;99.90
52941;DHT22;62001;53.366;6.636;2023-07-30T14:33:22;21.30;99.90
52941;DHT22;62001;53.366;6.636;2023-07-30T14:35:47;21.10;99.90
52941;DHT22;62001;53.366;6.636;2023-07-30T14:38:13;21.00;99.90
52941;DHT22;62001;53.366;6.636;2023-07-30T14:40:39;20.80;99.90
52941;DHT22;62001;53.366;6.636;2023-07-30T14:43:05;20.80;99.90
52941;DHT22;62001;53.366;6.636;2023-07-30T14:45:31;20.80;99.90
52941;DHT22;62001;53.366;6.636;2023-07-30T14:47:57;20.90;99.90
52941;DHT22;62001;53.366;6.636;2023-07-30T14:50:23;20.90;99.90
52941;DHT22;62001;53.366;6.636;2023-07-30T14:52:48;20.90;99.90
52941;DHT22;62001;53.366;6.636;2023-07-30T14:55:14;20.90;99.90
52941;DHT22;62001;53.366;6.636;2023-07-30T14:57:40;20.90;99.90
52941;DHT22;62001;53.366;6.636;2023-07-30T15:00:07;20.90;99.90
52941;DHT22;62001;53.366;6.636;2023-07-30T15:02:37;20.90;99.90
52941;DHT22;62001;53.366;6.636;2023-07-30T15:05:03;20.80;99.90
52941;DHT22;62001;53.366;6.636;2023-07-30T15:07:29;20.80;99.90
52941;DHT22;62001;53.366;6.636;2023-07-30T15:09:55;20.70;99.90
52941;DHT22;62001;53.366;6.636;2023-07-30T15:12:21;20.60;99.90
52941;DHT22;62001;53.366;6.636;2023-07-30T15:14:47;20.60;99.90
52941;DHT22;62001;53.366;6.636;2023-07-30T15:17:13;20.50;99.90
52941;DHT22;62001;53.366;6.636;2023-07-30T15:19:40;20.40;99.90
52941;DHT22;62001;53.366;6.636;2023-07-30T15:22:06;20.30;99.90
52941;DHT22;62001;53.366;6.636;2023-07-30T15:24:32;20.20;99.90
52941;DHT22;62001;53.366;6.636;2023-07-30T15:26:57;20.10;99.90
52941;DHT22;62001;53.366;6.636;2023-07-30T15:29:23;20.00;99.90
52941;DHT22;62001;53.366;6.636;2023-07-30T15:31:50;20.00;99.90